Time;durP1;ratioP1;P1;durP2;ratioP2;P2;SDS_P1;SDS_P2;PMS_P1;PMS_P2;Temp;Humidity;BMP_temperature;BMP_pressure;BME280_temperature;BME280_humidity;BME280_pressure;Samples;Min_cycle;Max_cycle;Signal;HPM_P1;HPM_P2
2023/04/22 05:12:46;;;;;;;8.43;4.30;;;8.30;1.00;;;;;;5102344;23;20315;-89
2023/04/22 05:15:13;;;;;;;7.97;4.47;;;8.30;1.00;;;;;;4995917;28;20213;-89
2023/04/22 05:17:40;;;;;;;5.97;3.80;;;8.40;1.00;;;;;;5005099;28;20713;-92
2023/04/22 05:20:07;;;;;;;6.37;4.43;;;8.50;1.00;;;;;;4994965;28;20712;-89
2023/04/22 05:22:35;;;;;;;6.97;4.17;;;8.50;1.00;;;;;;4994938;28;20255;-90
2023/04/22 05:25:02;;;;;;;6.47;4.17;;;8.60;1.00;;;;;;5005619;28;20568;-90
2023/04/22 05:27:29;;;;;;;7.03;4.10;;;8.70;1.00;;;;;;4998044;28;20194;-89
2023/04/22 05:29:57;;;;;;;7.20;4.50;;;8.80;1.00;;;;;;5000268;28;20200;-91
2023/04/22 05:32:24;;;;;;;6.77;4.03;;;8.90;1.00;;;;;;5014911;28;20570;-91
2023/04/22 05:34:51;;;;;;;6.40;4.07;;;9.00;1.00;;;;;;4995049;28;20194;-90
2023/04/22 05:37:18;;;;;;;8.47;4.50;;;9.10;1.00;;;;;;5001886;28;20199;-91
2023/04/22 05:39:45;;;;;;;6.50;3.90;;;9.20;1.00;;;;;;5004674;28;20197;-89
2023/04/22 05:42:11;;;;;;;9.23;4.00;;;9.30;1.00;;;;;;5012457;28;20219;-90
2023/04/22 05:44:38;;;;;;;7.90;4.47;;;9.30;1.00;;;;;;5014208;28;20199;-92
2023/04/22 05:47:06;;;;;;;6.60;4.10;;;9.40;1.00;;;;;;5014479;28;20565;-92
2023/04/22 05:49:33;;;;;;;7.37;4.33;;;9.50;1.00;;;;;;5014285;28;20190;-93
2023/04/22 05:52:00;;;;;;;6.70;4.27;;;9.60;1.00;;;;;;5014946;28;20201;-93
2023/04/22 05:54:27;;;;;;;9.03;4.67;;;9.70;1.00;;;;;;5013640;28;20696;-89
2023/04/22 05:56:53;;;;;;;7.80;4.30;;;9.80;1.00;;;;;;5008005;28;20197;-89
2023/04/22 05:59:20;;;;;;;7.10;4.40;;;9.90;1.00;;;;;;5008701;28;20659;-87
2023/04/22 06:01:47;;;;;;;8.30;4.77;;;10.10;1.00;;;;;;4994719;28;20211;-89
2023/04/22 06:04:15;;;;;;;7.83;4.67;;;10.20;1.00;;;;;;5006697;28;20210;-89
2023/04/22 06:06:42;;;;;;;5.63;4.37;;;10.30;1.00;;;;;;5001148;28;20198;-88
2023/04/22 06:09:09;;;;;;;6.97;4.50;;;10.40;1.00;;;;;;5004013;28;20205;-90
2023/04/22 06:11:36;;;;;;;10.97;4.20;;;10.50;1.00;;;;;;5002646;28;20218;-90
2023/04/22 06:14:02;;;;;;;5.33;4.10;;;10.60;1.00;;;;;;5004239;28;20205;-89
2023/04/22 06:16:29;;;;;;;7.70;4.37;;;10.70;1.00;;;;;;5006254;28;20204;-89
2023/04/22 06:18:56;;;;;;;9.33;4.57;;;10.80;99.90;;;;;;5004786;28;20549;-90
2023/04/22 06:21:24;;;;;;;7.00;4.90;;;11.00;99.90;;;;;;5000912;28;20542;-91
2023/04/22 06:23:51;;;;;;;9.13;4.70;;;11.00;99.90;;;;;;5001659;28;20200;-92
2023/04/22 06:26:18;;;;;;;6.07;4.10;;;11.10;99.90;;;;;;4999199;28;20657;-92
2023/04/22 06:28:45;;;;;;;6.30;4.13;;;11.30;99.90;;;;;;5004193;28;20195;-92
2023/04/22 06:31:11;;;;;;;6.60;4.40;;;11.40;99.90;;;;;;5006569;28;20198;-91
2023/04/22 06:33:38;;;;;;;6.80;4.70;;;11.50;99.90;;;;;;5003841;28;20210;-91
2023/04/22 06:36:06;;;;;;;6.97;4.77;;;11.60;99.90;;;;;;5004440;28;20202;-91
2023/04/22 06:38:34;;;;;;;9.47;4.67;;;11.70;99.90;;;;;;5012647;28;20576;-91
2023/04/22 06:41:01;;;;;;;9.30;4.40;;;11.80;99.90;;;;;;4994594;28;20206;-88
2023/04/22 06:43:28;;;;;;;6.50;4.60;;;11.90;99.90;;;;;;5008283;28;20227;-90
2023/04/22 06:45:55;;;;;;;7.40;4.20;;;12.10;99.90;;;;;;5008365;28;20282;-90
2023/04/22 06:48:21;;;;;;;7.83;4.53;;;12.20;99.90;;;;;;5002850;28;20191;-91
2023/04/22 06:50:48;;;;;;;8.27;4.87;;;12.30;99.90;;;;;;5004648;28;20202;-90
2023/04/22 06:53:15;;;;;;;11.40;5.00;;;12.40;99.90;;;;;;5000502;28;20191;-90
2023/04/22 06:55:43;;;;;;;8.30;4.83;;;12.50;99.90;;;;;;5007892;28;20286;-91
2023/04/22 06:58:10;;;;;;;9.27;4.80;;;12.60;99.90;;;;;;5003321;28;20194;-91
2023/04/22 07:00:37;;;;;;;6.60;4.70;;;12.70;99.90;;;;;;4999043;28;20294;-93
2023/04/22 07:03:04;;;;;;;6.87;4.80;;;12.90;99.90;;;;;;5002899;28;20207;-92
2023/04/22 07:05:30;;;;;;;9.83;4.60;;;13.00;99.90;;;;;;5002327;28;20202;-93
2023/04/22 07:07:57;;;;;;;12.00;4.80;;;13.10;99.90;;;;;;5011060;28;20243;-93
2023/04/22 07:10:24;;;;;;;11.93;4.67;;;13.30;99.90;;;;;;5015052;28;20220;-93
2023/04/22 07:12:52;;;;;;;7.97;4.70;;;13.40;99.90;;;;;;5010803;28;20220;-92
2023/04/22 07:15:19;;;;;;;7.43;5.33;;;13.50;99.90;;;;;;5009390;28;20208;-93
2023/04/22 07:17:46;;;;;;;11.70;4.70;;;13.60;99.90;;;;;;5012133;28;20288;-92
2023/04/22 07:20:13;;;;;;;9.07;5.03;;;13.70;99.90;;;;;;5000282;28;20204;-92
2023/04/22 07:22:39;;;;;;;9.50;4.73;;;13.80;85.00;;;;;;5002313;28;20222;-93
2023/04/22 07:25:07;;;;;;;7.47;5.07;;;13.90;59.90;;;;;;5008699;28;20206;-94
2023/04/22 07:27:35;;;;;;;9.80;4.73;;;14.00;31.80;;;;;;5012776;28;20677;-92
2023/04/22 07:32:45;;;;;;;8.73;5.03;;;14.20;38.20;;;;;;6012260;23;20166;-92
2023/04/22 07:35:12;;;;;;;9.50;5.20;;;14.30;22.60;;;;;;4996140;28;20210;-93
2023/04/22 07:37:39;;;;;;;6.10;4.60;;;14.40;12.20;;;;;;4992059;28;20655;-94
2023/04/22 07:40:10;;;;;;;9.70;5.20;;;14.50;14.10;;;;;;4996583;28;20209;-92
2023/04/22 07:42:37;;;;;;;7.63;5.00;;;14.60;8.10;;;;;;4988822;28;20301;-93
2023/04/22 07:45:05;;;;;;;6.97;5.23;;;14.70;1.00;;;;;;4996335;28;20208;-91
2023/04/22 07:47:32;;;;;;;10.57;5.70;;;14.80;1.00;;;;;;4993348;28;20575;-92
2023/04/22 07:50:00;;;;;;;8.88;5.18;;;15.00;1.00;;;;;;4988792;28;20205;-92
2023/04/22 07:52:26;;;;;;;7.68;4.97;;;15.00;1.00;;;;;;4995980;28;20204;-92
2023/04/22 07:54:53;;;;;;;9.60;6.70;;;15.20;1.00;;;;;;4992898;28;20214;-92
2023/04/22 07:57:21;;;;;;;9.10;5.97;;;15.30;1.00;;;;;;4988085;28;20649;-92
2023/04/22 07:59:48;;;;;;;10.90;6.07;;;15.40;1.00;;;;;;4995984;28;20200;-91
2023/04/22 08:02:14;;;;;;;9.00;6.03;;;15.40;1.00;;;;;;4994296;28;20224;-91
2023/04/22 08:04:41;;;;;;;9.50;6.22;;;15.50;1.00;;;;;;4985896;28;20216;-91
2023/04/22 08:07:10;;;;;;;8.82;6.05;;;15.60;1.00;;;;;;4995841;28;20239;-91
2023/04/22 08:09:36;;;;;;;12.93;6.80;;;15.70;1.00;;;;;;4996134;28;20660;-92
2023/04/22 08:12:03;;;;;;;9.20;6.20;;;15.80;1.00;;;;;;4996569;28;20197;-93
2023/04/22 08:14:30;;;;;;;10.57;6.45;;;15.80;1.00;;;;;;4984801;28;20198;-92
2023/04/22 08:16:57;;;;;;;12.18;6.47;;;15.90;1.00;;;;;;4979235;28;20201;-92
2023/04/22 08:19:24;;;;;;;10.75;6.50;;;16.00;1.00;;;;;;4980650;28;20204;-93
2023/04/22 08:21:50;;;;;;;8.90;6.20;;;16.10;1.00;;;;;;4985205;28;20204;-92
2023/04/22 08:24:18;;;;;;;10.38;6.55;;;16.20;1.00;;;;;;4977504;28;20222;-93
2023/04/22 08:26:45;;;;;;;14.02;5.93;;;16.30;1.00;;;;;;4977456;28;20198;-92
2023/04/22 08:29:13;;;;;;;14.00;6.30;;;16.40;1.00;;;;;;4991270;28;20210;-93
2023/04/22 08:31:40;;;;;;;7.30;5.90;;;16.50;1.00;;;;;;4996328;28;20198;-91
2023/04/22 08:34:06;;;;;;;9.07;6.18;;;16.60;1.00;;;;;;4990912;28;20223;-93
2023/04/22 08:36:33;;;;;;;7.32;4.82;;;16.70;1.00;;;;;;4977528;28;20199;-93
2023/04/22 08:39:00;;;;;;;7.82;4.60;;;16.90;1.00;;;;;;4991372;28;20195;-93
2023/04/22 08:41:30;;;;;;;8.45;5.18;;;17.00;1.00;;;;;;4992972;28;20199;-92
2023/04/22 08:43:59;;;;;;;7.88;4.80;;;17.10;1.00;;;;;;4995963;28;20222;-92
2023/04/22 08:46:27;;;;;;;8.10;4.97;;;17.10;1.00;;;;;;4983930;28;20565;-92
2023/04/22 08:48:54;;;;;;;7.03;4.70;;;17.20;1.00;;;;;;4976736;28;20564;-91
2023/04/22 08:51:22;;;;;;;9.25;5.10;;;17.20;1.00;;;;;;4983029;28;20202;-92
2023/04/22 08:53:49;;;;;;;10.13;4.72;;;17.30;1.00;;;;;;4990502;28;20201;-91
2023/04/22 08:56:16;;;;;;;6.82;4.47;;;17.30;1.00;;;;;;4988643;28;20200;-91
2023/04/22 08:58:45;;;;;;;6.75;4.72;;;17.50;1.00;;;;;;4986041;28;20221;-92
2023/04/22 09:01:13;;;;;;;6.20;4.82;;;17.60;1.00;;;;;;4994903;28;20262;-92
2023/04/22 09:03:41;;;;;;;9.13;4.60;;;17.70;1.00;;;;;;4994345;28;20219;-91
2023/04/22 09:06:10;;;;;;;6.60;4.97;;;17.70;1.00;;;;;;4995735;28;20195;-92
2023/04/22 09:08:38;;;;;;;9.27;5.65;;;17.70;1.00;;;;;;4993957;28;20206;-92
2023/04/22 09:11:05;;;;;;;8.23;5.05;;;17.70;1.00;;;;;;4995596;28;20222;-92
2023/04/22 09:13:33;;;;;;;11.65;5.28;;;17.80;1.00;;;;;;4986174;28;20684;-92
2023/04/22 09:16:01;;;;;;;7.50;5.50;;;17.90;1.00;;;;;;4980404;28;20207;-92
2023/04/22 09:18:28;;;;;;;6.47;5.20;;;17.90;1.00;;;;;;4995085;28;20199;-92
2023/04/22 09:20:56;;;;;;;6.15;5.20;;;17.90;1.00;;;;;;4991736;28;20199;-92
2023/04/22 09:23:23;;;;;;;9.77;4.97;;;18.00;1.00;;;;;;4990906;28;20211;-92
2023/04/22 09:25:50;;;;;;;7.88;5.47;;;18.00;1.00;;;;;;4986830;28;20203;-92
2023/04/22 09:28:18;;;;;;;8.77;5.30;;;18.00;1.00;;;;;;4990197;28;20257;-92
2023/04/22 09:30:46;;;;;;;5.75;4.47;;;18.00;1.00;;;;;;4978241;28;20552;-92
2023/04/22 09:33:16;;;;;;;7.55;4.22;;;18.00;1.00;;;;;;4995056;28;20716;-92
2023/04/22 09:35:43;;;;;;;8.10;5.00;;;18.00;1.00;;;;;;4994399;28;20207;-92
2023/04/22 09:38:11;;;;;;;7.75;4.80;;;18.10;1.00;;;;;;4995090;28;20207;-92
2023/04/22 09:40:42;;;;;;;5.85;4.63;;;18.10;1.00;;;;;;4986279;28;20195;-92
2023/04/22 09:43:10;;;;;;;5.97;4.13;;;18.20;1.00;;;;;;4993597;28;20216;-92
2023/04/22 09:45:38;;;;;;;6.95;4.03;;;18.30;1.00;;;;;;4993313;28;20235;-92
2023/04/22 09:48:08;;;;;;;7.60;4.85;;;18.40;1.00;;;;;;4982976;28;20191;-92
2023/04/22 09:50:37;;;;;;;13.80;5.85;;;18.40;1.00;;;;;;4994320;28;20203;-92
2023/04/22 09:53:06;;;;;;;8.30;4.38;;;18.50;1.00;;;;;;4985756;28;20204;-93
2023/04/22 09:55:36;;;;;;;5.78;4.43;;;18.60;1.00;;;;;;4983800;28;20199;-92
2023/04/22 09:58:08;;;;;;;4.45;3.90;;;18.60;1.00;;;;;;4977266;28;20230;-92
2023/04/22 10:00:39;;;;;;;6.53;4.82;;;18.60;1.00;;;;;;4975520;28;20282;-92
2023/04/22 10:03:07;;;;;;;8.57;5.07;;;18.70;1.00;;;;;;4995000;28;20700;-92
2023/04/22 10:05:36;;;;;;;7.82;5.38;;;18.70;1.00;;;;;;4985425;28;20200;-92
2023/04/22 10:08:05;;;;;;;12.85;6.20;;;18.70;1.00;;;;;;4982773;28;20199;-92
2023/04/22 10:10:32;;;;;;;10.23;7.40;;;18.80;1.00;;;;;;4990348;28;20209;-92
2023/04/22 10:12:59;;;;;;;8.13;4.82;;;18.90;1.00;;;;;;4994523;28;20716;-93
2023/04/22 10:15:27;;;;;;;9.40;4.68;;;18.90;1.00;;;;;;4994699;28;20205;-93
2023/04/22 10:17:55;;;;;;;7.65;5.13;;;19.00;1.00;;;;;;4977068;28;20195;-91
2023/04/22 10:20:23;;;;;;;7.10;4.75;;;19.00;1.00;;;;;;4985930;28;20198;-92
2023/04/22 10:22:53;;;;;;;8.30;4.95;;;19.10;1.00;;;;;;4991317;28;20769;-91
2023/04/22 10:25:24;;;;;;;13.90;5.10;;;19.10;1.00;;;;;;4991670;28;20196;-93
2023/04/22 10:28:01;;;;;;;13.77;7.03;;;19.30;1.00;;;;;;4984303;28;20203;-92
2023/04/22 10:30:29;;;;;;;6.30;4.35;;;19.40;1.00;;;;;;4975338;28;20199;-91
2023/04/22 10:32:56;;;;;;;20.80;15.52;;;19.50;1.00;;;;;;4975309;28;20202;-92
2023/04/22 10:35:27;;;;;;;15.98;14.27;;;19.60;1.00;;;;;;4993812;28;20195;-92
2023/04/22 10:37:54;;;;;;;7.78;6.90;;;19.60;1.00;;;;;;4990191;28;20179;-92
2023/04/22 10:40:22;;;;;;;8.20;7.25;;;19.70;1.00;;;;;;4994588;28;20278;-94
2023/04/22 10:42:52;;;;;;;8.07;4.40;;;19.70;1.00;;;;;;4997957;28;20205;-93
2023/04/22 10:45:23;;;;;;;7.80;6.20;;;19.80;1.00;;;;;;4997856;28;20191;-93
2023/04/22 10:47:50;;;;;;;7.93;4.65;;;19.90;1.00;;;;;;4985263;28;20183;-92
2023/04/22 10:50:21;;;;;;;15.02;6.00;;;19.90;1.00;;;;;;4998499;28;20205;-93
2023/04/22 10:52:50;;;;;;;20.58;8.10;;;20.00;1.00;;;;;;4998110;28;20323;-92
2023/04/22 10:55:17;;;;;;;17.65;6.55;;;20.00;1.00;;;;;;4997247;28;20202;-92
2023/04/22 10:57:47;;;;;;;6.40;4.43;;;20.00;1.00;;;;;;4996413;28;20286;-91
2023/04/22 11:00:29;;;;;;;10.32;6.38;;;20.10;1.00;;;;;;4986721;28;20192;-91
2023/04/22 11:03:11;;;;;;;7.22;4.78;;;20.10;1.00;;;;;;4984146;28;20197;-92
2023/04/22 11:05:38;;;;;;;12.63;5.97;;;20.20;1.00;;;;;;4978250;28;20218;-91
2023/04/22 11:08:07;;;;;;;20.52;8.30;;;20.20;1.00;;;;;;4982255;28;20199;-91
2023/04/22 11:10:39;;;;;;;9.57;5.45;;;20.30;1.00;;;;;;4978302;28;20587;-90
2023/04/22 11:13:08;;;;;;;6.90;5.28;;;20.30;1.00;;;;;;4989061;28;20223;-91
2023/04/22 11:15:37;;;;;;;8.10;5.30;;;20.40;1.00;;;;;;4989187;28;20195;-91
2023/04/22 11:18:09;;;;;;;8.35;4.70;;;20.40;1.00;;;;;;4990004;28;20196;-91
2023/04/22 11:20:36;;;;;;;7.40;5.00;;;20.40;1.00;;;;;;4986308;28;20664;-91
2023/04/22 11:23:03;;;;;;;6.63;4.72;;;20.40;1.00;;;;;;4990086;28;20668;-90
2023/04/22 11:25:30;;;;;;;9.18;5.60;;;20.40;1.00;;;;;;4997219;28;20203;-92
2023/04/22 11:27:58;;;;;;;9.25;4.90;;;20.50;1.00;;;;;;4981102;28;20570;-91
2023/04/22 11:30:30;;;;;;;6.78;5.25;;;20.60;1.00;;;;;;4981550;28;20199;-92
2023/04/22 11:32:58;;;;;;;10.43;5.20;;;20.60;1.00;;;;;;4977906;28;20282;-93
2023/04/22 11:35:27;;;;;;;5.88;4.85;;;20.70;1.00;;;;;;4993461;28;20221;-92
2023/04/22 11:37:56;;;;;;;34.20;25.58;;;20.70;1.00;;;;;;4988898;28;20278;-95
2023/04/22 11:40:25;;;;;;;11.68;8.27;;;20.70;1.00;;;;;;4979243;28;20211;-92
2023/04/22 11:42:52;;;;;;;5.43;4.10;;;20.70;1.00;;;;;;4980625;28;20238;-92
2023/04/22 11:45:20;;;;;;;6.75;5.05;;;20.70;1.00;;;;;;4996975;28;20225;-91
2023/04/22 11:47:50;;;;;;;7.95;4.50;;;20.70;1.00;;;;;;4996900;28;20201;-92
2023/04/22 11:50:18;;;;;;;6.75;4.90;;;20.80;1.00;;;;;;4996268;28;20199;-92
2023/04/22 11:52:47;;;;;;;6.65;5.05;;;20.80;1.00;;;;;;4991604;28;20202;-92
2023/04/22 11:55:15;;;;;;;6.38;5.00;;;20.80;1.00;;;;;;4991188;28;20200;-92
2023/04/22 11:57:42;;;;;;;10.63;6.32;;;20.80;1.00;;;;;;4978721;28;20200;-92
2023/04/22 12:00:13;;;;;;;10.63;5.50;;;20.90;1.00;;;;;;4996776;28;20206;-92
2023/04/22 12:02:40;;;;;;;12.02;6.32;;;20.80;1.00;;;;;;4996524;28;20205;-92
2023/04/22 12:05:12;;;;;;;8.10;4.63;;;20.90;1.00;;;;;;4982487;28;20719;-90
2023/04/22 12:07:39;;;;;;;6.60;4.18;;;20.90;1.00;;;;;;4983805;28;20198;-89
2023/04/22 12:10:07;;;;;;;11.55;6.28;;;20.90;1.00;;;;;;4994531;28;20195;-89
2023/04/22 12:12:36;;;;;;;9.38;5.53;;;20.90;1.00;;;;;;4991959;28;20734;-89
2023/04/22 12:15:09;;;;;;;7.68;4.53;;;20.90;1.00;;;;;;4976594;28;20188;-91
2023/04/22 12:17:36;;;;;;;10.48;4.38;;;20.90;1.00;;;;;;4985304;28;20195;-91
2023/04/22 12:20:03;;;;;;;7.93;4.80;;;21.00;1.00;;;;;;4987568;28;20195;-92
2023/04/22 12:22:33;;;;;;;8.00;5.07;;;21.10;1.00;;;;;;4985076;28;20754;-92
2023/04/22 12:25:00;;;;;;;7.20;4.97;;;21.10;1.00;;;;;;4977728;28;20214;-91
2023/04/22 12:27:27;;;;;;;6.07;4.10;;;21.10;1.00;;;;;;4976928;28;20203;-91
2023/04/22 12:29:56;;;;;;;6.13;3.92;;;21.20;1.00;;;;;;4976686;28;20250;-91
2023/04/22 12:32:23;;;;;;;5.50;4.38;;;21.20;1.00;;;;;;4977033;28;20286;-91
2023/04/22 12:34:50;;;;;;;7.07;4.40;;;21.20;1.00;;;;;;4977929;28;20609;-92
2023/04/22 12:37:18;;;;;;;6.30;4.20;;;21.20;1.00;;;;;;4979785;28;20268;-90
2023/04/22 12:39:46;;;;;;;7.70;5.07;;;21.30;1.00;;;;;;4978120;28;20227;-91
2023/04/22 12:42:13;;;;;;;7.28;4.70;;;21.30;1.00;;;;;;4976537;28;20200;-91
2023/04/22 12:44:40;;;;;;;5.50;4.70;;;21.40;1.00;;;;;;4986757;28;20211;-92
2023/04/22 12:47:08;;;;;;;9.73;5.65;;;21.40;1.00;;;;;;4988200;28;20230;-92
2023/04/22 12:49:36;;;;;;;7.72;5.20;;;21.40;1.00;;;;;;4985360;28;20267;-90
2023/04/22 12:52:03;;;;;;;6.43;4.80;;;21.40;1.00;;;;;;4991344;28;20235;-90
2023/04/22 12:54:30;;;;;;;8.32;4.80;;;21.30;1.00;;;;;;4975778;28;20195;-90
2023/04/22 12:56:58;;;;;;;8.80;4.20;;;21.40;1.00;;;;;;4990237;28;20191;-90
2023/04/22 12:59:25;;;;;;;7.57;4.07;;;21.40;1.00;;;;;;4993498;28;20218;-90
2023/04/22 13:01:53;;;;;;;9.85;4.68;;;21.50;1.00;;;;;;4990035;28;20191;-90
2023/04/22 13:04:20;;;;;;;9.45;4.60;;;21.50;1.00;;;;;;4979106;28;20219;-90
2023/04/22 13:06:49;;;;;;;7.10;4.50;;;21.40;1.00;;;;;;4990195;28;20195;-91
2023/04/22 13:09:16;;;;;;;11.35;7.13;;;21.40;1.00;;;;;;4981079;28;20679;-91
2023/04/22 13:11:43;;;;;;;7.47;4.78;;;21.50;1.00;;;;;;4984235;28;20727;-90
2023/04/22 13:14:11;;;;;;;5.63;4.20;;;21.60;1.00;;;;;;4982558;28;20203;-90
2023/04/22 13:16:38;;;;;;;7.97;4.60;;;21.70;1.00;;;;;;4976869;28;20202;-90
2023/04/22 13:19:04;;;;;;;5.93;4.22;;;21.70;1.00;;;;;;4975780;28;20673;-91
2023/04/22 13:21:31;;;;;;;7.90;4.25;;;21.70;1.00;;;;;;4977996;28;20642;-91
2023/04/22 13:23:58;;;;;;;6.70;4.82;;;21.80;1.00;;;;;;4975559;28;20223;-90
2023/04/22 13:26:26;;;;;;;5.63;4.25;;;21.80;1.00;;;;;;4984173;28;20203;-91
2023/04/22 13:28:52;;;;;;;8.73;4.60;;;21.70;1.00;;;;;;4975892;28;20246;-92
2023/04/22 13:31:21;;;;;;;22.38;16.85;;;21.70;1.00;;;;;;4982718;28;20206;-91
2023/04/22 13:33:47;;;;;;;6.40;4.90;;;21.70;1.00;;;;;;4980189;28;20704;-91
2023/04/22 13:36:14;;;;;;;7.53;4.05;;;21.70;1.00;;;;;;4976543;28;20200;-92
2023/04/22 13:38:41;;;;;;;7.07;4.30;;;21.70;1.00;;;;;;4983313;28;20200;-92
2023/04/22 13:41:08;;;;;;;8.75;4.78;;;21.80;1.00;;;;;;4983351;28;20199;-92
2023/04/22 13:43:35;;;;;;;7.20;4.50;;;21.80;1.00;;;;;;4988652;28;20205;-92
2023/04/22 13:46:02;;;;;;;7.13;4.28;;;21.80;1.00;;;;;;4989793;28;20632;-92
2023/04/22 13:48:30;;;;;;;7.55;4.32;;;21.80;1.00;;;;;;4991691;28;20201;-91
2023/04/22 13:50:56;;;;;;;5.68;4.00;;;21.80;1.00;;;;;;4994103;28;20191;-91
2023/04/22 13:53:23;;;;;;;7.70;4.50;;;21.80;1.00;;;;;;4991303;28;20700;-92
2023/04/22 13:55:50;;;;;;;5.80;4.20;;;21.80;1.00;;;;;;4994280;28;20210;-91
2023/04/22 13:58:17;;;;;;;6.85;4.05;;;21.80;1.00;;;;;;4994364;28;20572;-92
2023/04/22 14:00:44;;;;;;;5.80;4.60;;;21.80;1.00;;;;;;4990595;28;20569;-92
2023/04/22 14:03:11;;;;;;;6.65;5.05;;;21.90;1.00;;;;;;4991081;28;20286;-93
2023/04/22 14:05:39;;;;;;;6.68;5.05;;;21.90;1.00;;;;;;4992711;28;20222;-92
2023/04/22 14:08:06;;;;;;;6.63;4.40;;;22.00;1.00;;;;;;4993871;28;20207;-92
2023/04/22 14:10:33;;;;;;;6.80;4.68;;;21.90;1.00;;;;;;4986186;28;20202;-93
2023/04/22 14:12:59;;;;;;;7.40;4.75;;;21.90;1.00;;;;;;4986179;28;20211;-93
2023/04/22 14:15:26;;;;;;;6.75;5.00;;;21.80;1.00;;;;;;4994525;28;20191;-92
2023/04/22 14:17:53;;;;;;;8.27;4.63;;;21.90;1.00;;;;;;4998491;28;20195;-93
2023/04/22 14:20:20;;;;;;;5.82;4.85;;;21.80;1.00;;;;;;4998943;28;20206;-92
2023/04/22 14:22:48;;;;;;;7.72;4.47;;;21.70;1.00;;;;;;4998711;28;20205;-92
2023/04/22 14:25:15;;;;;;;5.15;4.28;;;21.80;1.00;;;;;;4998343;28;20565;-93
2023/04/22 14:27:42;;;;;;;6.13;4.72;;;21.80;1.00;;;;;;4998623;28;20202;-92
2023/04/22 14:30:11;;;;;;;8.23;4.68;;;21.80;1.00;;;;;;4998895;28;20286;-93
2023/04/22 14:32:38;;;;;;;9.48;5.20;;;21.90;1.00;;;;;;4998310;28;20202;-92
2023/04/22 14:35:05;;;;;;;6.80;5.20;;;21.90;1.00;;;;;;4998906;28;20201;-94
2023/04/22 14:37:34;;;;;;;11.57;4.90;;;21.90;1.00;;;;;;4998609;28;20202;-93
2023/04/22 14:40:02;;;;;;;7.30;5.07;;;22.00;1.00;;;;;;4979334;28;20205;-92
2023/04/22 14:42:30;;;;;;;5.90;4.85;;;22.00;1.00;;;;;;4980740;28;20207;-93
2023/04/22 14:44:57;;;;;;;9.10;4.38;;;22.10;1.00;;;;;;4998026;28;20303;-95
2023/04/22 14:47:23;;;;;;;5.18;3.92;;;22.00;1.00;;;;;;4990126;28;20209;-93
2023/04/22 14:49:50;;;;;;;7.60;4.82;;;22.00;1.00;;;;;;4990353;28;20215;-92
2023/04/22 14:52:17;;;;;;;8.60;4.03;;;21.90;1.00;;;;;;4987358;28;20195;-91
2023/04/22 14:54:44;;;;;;;5.32;4.10;;;21.90;1.00;;;;;;4997517;28;20195;-91
2023/04/22 14:57:12;;;;;;;5.05;4.32;;;21.80;1.00;;;;;;4987805;28;20202;-92
2023/04/22 14:59:39;;;;;;;10.52;5.35;;;21.80;1.00;;;;;;4978124;28;20212;-92
2023/04/22 15:02:06;;;;;;;7.30;4.20;;;21.80;1.00;;;;;;4979898;28;20203;-93
2023/04/22 15:04:33;;;;;;;4.50;3.97;;;21.80;1.00;;;;;;4995536;28;20225;-94
2023/04/22 15:07:01;;;;;;;6.90;3.90;;;21.80;1.00;;;;;;4996267;28;20211;-93
2023/04/22 15:09:28;;;;;;;5.63;3.58;;;21.70;1.00;;;;;;4994640;28;20195;-93
2023/04/22 15:11:56;;;;;;;5.25;3.97;;;21.80;1.00;;;;;;4978510;28;20200;-93
2023/04/22 15:14:24;;;;;;;6.43;4.70;;;21.80;1.00;;;;;;4980628;28;20287;-93
2023/04/22 15:16:51;;;;;;;6.93;4.22;;;21.80;1.00;;;;;;4994898;28;20205;-91
2023/04/22 15:19:17;;;;;;;5.55;4.20;;;21.80;1.00;;;;;;4983541;28;20203;-92
2023/04/22 15:21:45;;;;;;;13.50;4.30;;;21.70;1.00;;;;;;4986543;28;20566;-92
2023/04/22 15:24:12;;;;;;;5.57;4.35;;;21.70;1.00;;;;;;4984694;28;20664;-91
2023/04/22 15:26:39;;;;;;;5.30;4.30;;;21.70;1.00;;;;;;4989537;28;20635;-90
2023/04/22 15:29:06;;;;;;;6.28;4.25;;;21.70;1.00;;;;;;4984034;28;20203;-90
2023/04/22 15:31:34;;;;;;;8.65;4.25;;;21.60;1.00;;;;;;4982627;28;20259;-89
2023/04/22 15:34:01;;;;;;;8.15;4.85;;;21.50;1.00;;;;;;4981028;28;20218;-89
2023/04/22 15:36:28;;;;;;;7.88;5.15;;;21.40;99.90;;;;;;4977336;28;20195;-90
2023/04/22 15:38:55;;;;;;;4.95;4.07;;;21.40;99.90;;;;;;4993338;28;20543;-89
2023/04/22 15:41:23;;;;;;;5.68;3.88;;;21.30;99.90;;;;;;4983607;28;20665;-92
2023/04/22 15:43:50;;;;;;;5.10;4.25;;;21.30;99.90;;;;;;4982401;28;20568;-90
2023/04/22 15:46:17;;;;;;;7.40;4.22;;;21.20;99.90;;;;;;4994314;28;20219;-91
2023/04/22 15:48:47;;;;;;;5.75;4.50;;;21.20;99.90;;;;;;4977963;28;20191;-88
2023/04/22 15:51:14;;;;;;;9.65;5.07;;;21.20;99.90;;;;;;4983267;28;20218;-88
2023/04/22 15:53:41;;;;;;;5.75;4.60;;;21.30;99.90;;;;;;4979778;28;20205;-88
2023/04/22 15:56:09;;;;;;;6.05;3.63;;;21.30;99.90;;;;;;4983065;28;20195;-88
2023/04/22 15:58:35;;;;;;;10.80;5.10;;;21.20;99.90;;;;;;4991700;28;20271;-90
2023/04/22 16:01:02;;;;;;;6.82;5.13;;;21.20;99.90;;;;;;4977967;28;20207;-89
2023/04/22 16:03:29;;;;;;;6.70;5.00;;;21.10;99.90;;;;;;4991459;28;20198;-90
2023/04/22 16:05:57;;;;;;;6.78;5.35;;;21.10;99.90;;;;;;4995026;28;20226;-90
2023/04/22 16:08:24;;;;;;;14.10;11.18;;;21.10;99.90;;;;;;4984038;28;20207;-89
2023/04/22 16:10:51;;;;;;;140.10;78.13;;;21.00;99.90;;;;;;4981021;28;20696;-90
2023/04/22 16:13:18;;;;;;;22.38;16.25;;;21.00;99.90;;;;;;4992742;28;20191;-90
2023/04/22 16:15:45;;;;;;;22.85;18.73;;;20.90;99.90;;;;;;4981916;28;20245;-89
2023/04/22 16:18:12;;;;;;;45.95;40.42;;;20.90;99.90;;;;;;4991936;28;20217;-89
2023/04/22 16:20:39;;;;;;;11.77;8.60;;;21.00;99.90;;;;;;4994093;28;20203;-89
2023/04/22 16:23:07;;;;;;;23.15;20.63;;;20.90;99.90;;;;;;4988714;28;20225;-90
2023/04/22 16:25:34;;;;;;;27.75;24.80;;;20.90;99.90;;;;;;4991094;28;20208;-90
2023/04/22 16:28:01;;;;;;;9.65;6.85;;;20.90;1.00;;;;;;4996058;28;20210;-90
2023/04/22 16:30:28;;;;;;;10.70;8.50;;;20.90;99.90;;;;;;4993134;28;20202;-90
2023/04/22 16:32:54;;;;;;;11.32;9.10;;;20.90;99.90;;;;;;4992015;28;20191;-90
2023/04/22 16:35:21;;;;;;;13.23;8.30;;;20.80;99.90;;;;;;4983848;28;20195;-90
2023/04/22 16:37:48;;;;;;;7.68;5.00;;;20.70;99.90;;;;;;4976788;28;20205;-91
2023/04/22 16:40:16;;;;;;;10.25;6.32;;;20.70;99.90;;;;;;4979785;28;20187;-91
2023/04/22 16:42:43;;;;;;;10.48;8.63;;;20.60;99.90;;;;;;4985126;28;20198;-91
2023/04/22 16:45:10;;;;;;;6.07;4.88;;;20.50;99.90;;;;;;4995950;28;20223;-91
2023/04/22 16:47:37;;;;;;;7.70;5.00;;;20.40;99.90;;;;;;4984722;28;20199;-94
2023/04/22 16:50:04;;;;;;;7.18;4.82;;;20.30;99.90;;;;;;4996218;28;20195;-92
2023/04/22 16:52:31;;;;;;;6.70;4.88;;;20.20;99.90;;;;;;4987581;28;20192;-92
2023/04/22 16:54:59;;;;;;;10.35;6.63;;;20.20;99.90;;;;;;4982243;28;20202;-93
2023/04/22 16:57:27;;;;;;;7.07;5.68;;;20.10;99.90;;;;;;4992238;28;20226;-92
2023/04/22 16:59:54;;;;;;;7.47;4.60;;;20.10;99.90;;;;;;4987442;28;20199;-92
2023/04/22 17:02:20;;;;;;;10.75;5.30;;;20.00;99.90;;;;;;4977429;28;20192;-92
2023/04/22 17:04:47;;;;;;;10.05;7.25;;;20.10;99.90;;;;;;4988832;28;20191;-91
2023/04/22 17:07:14;;;;;;;18.27;11.40;;;20.10;99.90;;;;;;4984461;28;20191;-92
2023/04/22 17:09:41;;;;;;;7.00;5.20;;;20.10;99.90;;;;;;4987371;28;20254;-91
2023/04/22 17:12:07;;;;;;;8.05;4.80;;;20.10;99.90;;;;;;4986263;28;20194;-93
2023/04/22 17:14:36;;;;;;;53.33;33.28;;;20.00;99.90;;;;;;4996237;28;20237;-91
2023/04/22 17:17:02;;;;;;;17.58;11.77;;;20.00;99.90;;;;;;4996447;28;20203;-91
2023/04/22 17:19:29;;;;;;;7.68;5.38;;;20.00;99.90;;;;;;4988625;28;20215;-92
2023/04/22 17:21:56;;;;;;;10.50;7.55;;;20.00;99.90;;;;;;4976532;28;20206;-93
2023/04/22 17:24:24;;;;;;;8.48;5.65;;;19.90;99.90;;;;;;4976183;28;20670;-92
2023/04/22 17:26:51;;;;;;;7.13;5.15;;;19.90;99.90;;;;;;4986819;28;20219;-91
2023/04/22 17:29:20;;;;;;;6.85;4.97;;;19.80;99.90;;;;;;4982816;28;20199;-90
2023/04/22 17:31:48;;;;;;;9.57;4.72;;;19.50;99.90;;;;;;4986726;28;20215;-90
2023/04/22 17:34:15;;;;;;;9.35;5.32;;;19.10;99.90;;;;;;4980704;28;20226;-91
2023/04/22 17:36:42;;;;;;;8.38;4.97;;;18.70;99.90;;;;;;4977073;28;20242;-91
2023/04/22 17:39:10;;;;;;;9.57;5.30;;;18.40;99.90;;;;;;4995572;28;20285;-92
2023/04/22 17:41:37;;;;;;;16.52;12.20;;;18.10;99.90;;;;;;4994931;28;20719;-90
2023/04/22 17:44:06;;;;;;;35.67;21.92;;;17.90;99.90;;;;;;4982992;28;20195;-90
2023/04/22 17:46:33;;;;;;;10.77;6.03;;;17.70;99.90;;;;;;4987743;28;20319;-90
2023/04/22 17:49:01;;;;;;;9.63;5.40;;;17.50;99.90;;;;;;4978775;28;20309;-90
2023/04/22 17:51:28;;;;;;;7.55;5.40;;;17.30;99.90;;;;;;4991699;28;20736;-92
2023/04/22 17:53:56;;;;;;;7.95;5.20;;;17.00;99.90;;;;;;4993192;28;20205;-91
2023/04/22 17:56:22;;;;;;;8.02;5.30;;;16.90;99.90;;;;;;4986080;28;20192;-92
2023/04/22 17:58:49;;;;;;;13.55;5.57;;;16.70;99.90;;;;;;4976789;28;20205;-93
2023/04/22 18:01:16;;;;;;;7.50;5.32;;;16.50;99.90;;;;;;4988323;28;20206;-92
2023/04/22 18:03:43;;;;;;;8.27;5.40;;;16.30;99.90;;;;;;4990678;28;20205;-92
2023/04/22 18:06:11;;;;;;;6.95;5.68;;;16.20;99.90;;;;;;4975505;28;20216;-92
2023/04/22 18:08:38;;;;;;;10.13;5.20;;;16.00;99.90;;;;;;4984030;28;20195;-92